L'gov, Russia
Current Conditions -  °F | °C
As of 10:00 PM on Friday 19 Dec 2014 (Local Time) from UUOK Reporting Station
Light Rain Light Rain  
Wind Chill: 26°   Ceiling: 700
Heat Index: 36°   Visibility: 2.5mi
Dew Point: 34°   Wind: 16mph
Humidity: 93%   Direction: 220°SW
Pressure: 29.8"   Gusts: NA
Location:  51.65°N, 35.28°E
Report Text: UUOK 191900Z 22007MPS 4000 -RA BR OVC007 02/01 Q1009 NOSIG RMK30290155
Loading
Personal Weather Stations






























Interactive Weather Map New forecast layout! Learn more

10-Day Weather Forecast

Advertisements
Track Severe Weather on mobile